sensor_id;sensor_type;location;lat;lon;timestamp;P1;durP1;ratioP1;P2;durP2;ratioP2
8716;SDS011;4395;48.554;8.820;2023-02-02T00:00:06;6.25;;;2.40;;
8716;SDS011;4395;48.554;8.820;2023-02-02T00:02:11;8.05;;;2.50;;
8716;SDS011;4395;48.554;8.820;2023-02-02T00:04:17;5.78;;;2.72;;
8716;SDS011;4395;48.554;8.820;2023-02-02T00:06:21;4.50;;;2.00;;
8716;SDS011;4395;48.554;8.820;2023-02-02T00:08:25;6.10;;;2.05;;
8716;SDS011;4395;48.554;8.820;2023-02-02T00:10:28;7.88;;;2.33;;
8716;SDS011;4395;48.554;8.820;2023-02-02T00:12:31;6.22;;;2.15;;
8716;SDS011;4395;48.554;8.820;2023-02-02T00:14:33;3.60;;;2.17;;
8716;SDS011;4395;48.554;8.820;2023-02-02T00:16:37;6.85;;;2.38;;
8716;SDS011;4395;48.554;8.820;2023-02-02T00:18:41;4.82;;;2.33;;
8716;SDS011;4395;48.554;8.820;2023-02-02T00:20:45;4.95;;;2.10;;
8716;SDS011;4395;48.554;8.820;2023-02-02T00:22:49;7.20;;;2.50;;
8716;SDS011;4395;48.554;8.820;2023-02-02T00:24:52;3.97;;;1.45;;
8716;SDS011;4395;48.554;8.820;2023-02-02T00:26:55;8.35;;;2.53;;
8716;SDS011;4395;48.554;8.820;2023-02-02T00:29:00;5.85;;;2.08;;
8716;SDS011;4395;48.554;8.820;2023-02-02T00:31:03;5.28;;;2.10;;
8716;SDS011;4395;48.554;8.820;2023-02-02T00:33:06;6.38;;;2.40;;
8716;SDS011;4395;48.554;8.820;2023-02-02T00:35:09;5.45;;;1.90;;
8716;SDS011;4395;48.554;8.820;2023-02-02T00:37:14;4.80;;;2.22;;
8716;SDS011;4395;48.554;8.820;2023-02-02T00:39:17;5.53;;;2.15;;
8716;SDS011;4395;48.554;8.820;2023-02-02T00:41:21;5.72;;;2.17;;
8716;SDS011;4395;48.554;8.820;2023-02-02T00:43:24;6.10;;;2.50;;
8716;SDS011;4395;48.554;8.820;2023-02-02T00:45:27;4.88;;;2.70;;
8716;SDS011;4395;48.554;8.820;2023-02-02T00:47:29;4.72;;;1.98;;
8716;SDS011;4395;48.554;8.820;2023-02-02T00:49:32;3.63;;;2.00;;
8716;SDS011;4395;48.554;8.820;2023-02-02T00:51:35;5.05;;;1.95;;
8716;SDS011;4395;48.554;8.820;2023-02-02T00:53:40;4.78;;;2.42;;
8716;SDS011;4395;48.554;8.820;2023-02-02T00:55:43;3.83;;;2.00;;
8716;SDS011;4395;48.554;8.820;2023-02-02T00:57:46;2.78;;;1.70;;
8716;SDS011;4395;48.554;8.820;2023-02-02T00:59:49;4.90;;;2.00;;
8716;SDS011;4395;48.554;8.820;2023-02-02T01:01:52;4.30;;;2.08;;
8716;SDS011;4395;48.554;8.820;2023-02-02T01:03:55;3.63;;;1.63;;
8716;SDS011;4395;48.554;8.820;2023-02-02T01:05:59;5.20;;;1.80;;
8716;SDS011;4395;48.554;8.820;2023-02-02T01:08:02;4.07;;;1.33;;
8716;SDS011;4395;48.554;8.820;2023-02-02T01:10:07;5.32;;;1.73;;
8716;SDS011;4395;48.554;8.820;2023-02-02T01:12:12;6.50;;;1.92;;
8716;SDS011;4395;48.554;8.820;2023-02-02T01:14:15;4.40;;;1.58;;
8716;SDS011;4395;48.554;8.820;2023-02-02T01:16:18;4.20;;;1.40;;
8716;SDS011;4395;48.554;8.820;2023-02-02T01:18:22;2.42;;;1.50;;
8716;SDS011;4395;48.554;8.820;2023-02-02T01:20:25;5.68;;;2.20;;
8716;SDS011;4395;48.554;8.820;2023-02-02T01:22:28;5.05;;;1.70;;
8716;SDS011;4395;48.554;8.820;2023-02-02T01:24:31;5.78;;;1.98;;
8716;SDS011;4395;48.554;8.820;2023-02-02T01:26:35;3.78;;;1.60;;
8716;SDS011;4395;48.554;8.820;2023-02-02T01:28:38;4.32;;;2.08;;
8716;SDS011;4395;48.554;8.820;2023-02-02T01:30:42;3.30;;;1.38;;
8716;SDS011;4395;48.554;8.820;2023-02-02T01:32:44;4.53;;;1.63;;
8716;SDS011;4395;48.554;8.820;2023-02-02T01:34:47;3.42;;;1.50;;
8716;SDS011;4395;48.554;8.820;2023-02-02T01:36:50;6.07;;;1.73;;
8716;SDS011;4395;48.554;8.820;2023-02-02T01:38:53;5.07;;;1.80;;
8716;SDS011;4395;48.554;8.820;2023-02-02T01:40:58;4.45;;;2.00;;
8716;SDS011;4395;48.554;8.820;2023-02-02T01:43:02;3.90;;;1.67;;
8716;SDS011;4395;48.554;8.820;2023-02-02T01:45:26;4.53;;;1.83;;
8716;SDS011;4395;48.554;8.820;2023-02-02T01:47:31;3.47;;;1.77;;
8716;SDS011;4395;48.554;8.820;2023-02-02T01:49:37;3.03;;;1.45;;
8716;SDS011;4395;48.554;8.820;2023-02-02T01:51:43;5.15;;;1.65;;
8716;SDS011;4395;48.554;8.820;2023-02-02T01:53:51;2.35;;;1.42;;
8716;SDS011;4395;48.554;8.820;2023-02-02T01:55:56;6.55;;;2.15;;
8716;SDS011;4395;48.554;8.820;2023-02-02T01:58:00;5.97;;;2.03;;
8716;SDS011;4395;48.554;8.820;2023-02-02T02:00:10;5.00;;;2.05;;
8716;SDS011;4395;48.554;8.820;2023-02-02T02:02:15;4.95;;;1.90;;
8716;SDS011;4395;48.554;8.820;2023-02-02T02:04:18;3.85;;;2.00;;
8716;SDS011;4395;48.554;8.820;2023-02-02T02:06:22;4.80;;;1.80;;
8716;SDS011;4395;48.554;8.820;2023-02-02T02:08:27;4.28;;;1.50;;
8716;SDS011;4395;48.554;8.820;2023-02-02T02:10:32;3.00;;;1.80;;
8716;SDS011;4395;48.554;8.820;2023-02-02T02:12:35;8.25;;;4.00;;
8716;SDS011;4395;48.554;8.820;2023-02-02T02:14:39;9.55;;;3.75;;
8716;SDS011;4395;48.554;8.820;2023-02-02T02:17:05;3.70;;;2.00;;
8716;SDS011;4395;48.554;8.820;2023-02-02T02:19:30;5.05;;;1.98;;
8716;SDS011;4395;48.554;8.820;2023-02-02T02:22:06;5.40;;;1.80;;
8716;SDS011;4395;48.554;8.820;2023-02-02T02:28:11;3.63;;;1.70;;
8716;SDS011;4395;48.554;8.820;2023-02-02T02:30:40;7.45;;;3.35;;
8716;SDS011;4395;48.554;8.820;2023-02-02T02:33:00;10.43;;;3.97;;
8716;SDS011;4395;48.554;8.820;2023-02-02T02:35:08;7.95;;;4.10;;
8716;SDS011;4395;48.554;8.820;2023-02-02T02:37:21;3.83;;;2.20;;
8716;SDS011;4395;48.554;8.820;2023-02-02T02:39:31;6.68;;;3.60;;
8716;SDS011;4395;48.554;8.820;2023-02-02T02:41:40;9.10;;;3.08;;
8716;SDS011;4395;48.554;8.820;2023-02-02T02:43:48;5.78;;;2.35;;
8716;SDS011;4395;48.554;8.820;2023-02-02T02:45:56;6.80;;;2.65;;
8716;SDS011;4395;48.554;8.820;2023-02-02T02:48:01;3.80;;;2.00;;
8716;SDS011;4395;48.554;8.820;2023-02-02T02:50:05;5.75;;;2.78;;
8716;SDS011;4395;48.554;8.820;2023-02-02T02:52:08;7.15;;;2.35;;
8716;SDS011;4395;48.554;8.820;2023-02-02T02:54:12;7.55;;;3.20;;
8716;SDS011;4395;48.554;8.820;2023-02-02T02:56:19;4.78;;;1.85;;
8716;SDS011;4395;48.554;8.820;2023-02-02T02:58:32;4.97;;;1.95;;
8716;SDS011;4395;48.554;8.820;2023-02-02T03:00:47;4.43;;;2.10;;
8716;SDS011;4395;48.554;8.820;2023-02-02T03:03:00;5.25;;;2.22;;
8716;SDS011;4395;48.554;8.820;2023-02-02T03:05:17;3.80;;;1.85;;
8716;SDS011;4395;48.554;8.820;2023-02-02T03:07:28;4.40;;;2.83;;
8716;SDS011;4395;48.554;8.820;2023-02-02T03:09:37;5.72;;;2.10;;
8716;SDS011;4395;48.554;8.820;2023-02-02T03:11:44;4.07;;;2.00;;
8716;SDS011;4395;48.554;8.820;2023-02-02T03:13:47;6.45;;;2.50;;
8716;SDS011;4395;48.554;8.820;2023-02-02T03:15:50;6.55;;;2.85;;
8716;SDS011;4395;48.554;8.820;2023-02-02T03:17:53;4.25;;;2.58;;
8716;SDS011;4395;48.554;8.820;2023-02-02T03:19:57;6.20;;;2.63;;
8716;SDS011;4395;48.554;8.820;2023-02-02T03:22:00;4.75;;;2.88;;
8716;SDS011;4395;48.554;8.820;2023-02-02T03:24:03;6.68;;;2.50;;
8716;SDS011;4395;48.554;8.820;2023-02-02T03:26:06;6.45;;;2.28;;
8716;SDS011;4395;48.554;8.820;2023-02-02T03:28:09;7.10;;;2.50;;
8716;SDS011;4395;48.554;8.820;2023-02-02T03:30:12;6.50;;;2.97;;
8716;SDS011;4395;48.554;8.820;2023-02-02T03:32:15;5.15;;;2.38;;
8716;SDS011;4395;48.554;8.820;2023-02-02T03:34:18;8.38;;;2.78;;
8716;SDS011;4395;48.554;8.820;2023-02-02T03:36:22;5.38;;;2.60;;
8716;SDS011;4395;48.554;8.820;2023-02-02T03:38:25;4.32;;;1.90;;
8716;SDS011;4395;48.554;8.820;2023-02-02T03:40:28;7.03;;;2.58;;
8716;SDS011;4395;48.554;8.820;2023-02-02T03:42:31;10.68;;;2.58;;
8716;SDS011;4395;48.554;8.820;2023-02-02T03:44:34;3.95;;;2.05;;
8716;SDS011;4395;48.554;8.820;2023-02-02T03:46:36;5.07;;;2.42;;
8716;SDS011;4395;48.554;8.820;2023-02-02T03:48:39;5.60;;;2.00;;
8716;SDS011;4395;48.554;8.820;2023-02-02T03:50:42;6.68;;;2.30;;
8716;SDS011;4395;48.554;8.820;2023-02-02T03:52:46;3.65;;;2.10;;
8716;SDS011;4395;48.554;8.820;2023-02-02T03:54:49;2.63;;;1.98;;
8716;SDS011;4395;48.554;8.820;2023-02-02T03:56:53;3.35;;;1.98;;
8716;SDS011;4395;48.554;8.820;2023-02-02T03:58:55;4.68;;;2.15;;
8716;SDS011;4395;48.554;8.820;2023-02-02T04:00:58;5.72;;;2.17;;
8716;SDS011;4395;48.554;8.820;2023-02-02T04:03:04;2.88;;;1.70;;
8716;SDS011;4395;48.554;8.820;2023-02-02T04:05:07;5.20;;;2.30;;
8716;SDS011;4395;48.554;8.820;2023-02-02T04:07:10;4.15;;;1.70;;
8716;SDS011;4395;48.554;8.820;2023-02-02T04:09:14;5.10;;;2.17;;
8716;SDS011;4395;48.554;8.820;2023-02-02T04:11:17;5.35;;;1.67;;
8716;SDS011;4395;48.554;8.820;2023-02-02T04:13:20;3.90;;;1.60;;
8716;SDS011;4395;48.554;8.820;2023-02-02T04:15:23;3.70;;;1.83;;
8716;SDS011;4395;48.554;8.820;2023-02-02T04:17:26;2.38;;;1.48;;
8716;SDS011;4395;48.554;8.820;2023-02-02T04:19:29;4.80;;;2.25;;
8716;SDS011;4395;48.554;8.820;2023-02-02T04:21:32;5.72;;;1.67;;
8716;SDS011;4395;48.554;8.820;2023-02-02T04:23:35;5.63;;;2.20;;
8716;SDS011;4395;48.554;8.820;2023-02-02T04:25:39;2.67;;;1.75;;
8716;SDS011;4395;48.554;8.820;2023-02-02T04:27:50;2.20;;;1.35;;
8716;SDS011;4395;48.554;8.820;2023-02-02T04:29:53;3.63;;;1.75;;
8716;SDS011;4395;48.554;8.820;2023-02-02T04:31:56;4.15;;;2.15;;
8716;SDS011;4395;48.554;8.820;2023-02-02T04:33:59;6.53;;;2.03;;
8716;SDS011;4395;48.554;8.820;2023-02-02T04:36:02;5.40;;;1.70;;
8716;SDS011;4395;48.554;8.820;2023-02-02T04:38:06;4.35;;;1.70;;
8716;SDS011;4395;48.554;8.820;2023-02-02T04:40:10;3.60;;;1.55;;
8716;SDS011;4395;48.554;8.820;2023-02-02T04:42:16;2.42;;;1.55;;
8716;SDS011;4395;48.554;8.820;2023-02-02T04:44:19;3.60;;;1.65;;
8716;SDS011;4395;48.554;8.820;2023-02-02T04:46:21;6.38;;;3.03;;
8716;SDS011;4395;48.554;8.820;2023-02-02T04:48:24;4.93;;;1.77;;
8716;SDS011;4395;48.554;8.820;2023-02-02T04:50:27;4.38;;;1.50;;
8716;SDS011;4395;48.554;8.820;2023-02-02T04:52:30;4.22;;;1.73;;
8716;SDS011;4395;48.554;8.820;2023-02-02T04:54:33;3.75;;;1.42;;
8716;SDS011;4395;48.554;8.820;2023-02-02T04:56:36;4.63;;;1.95;;
8716;SDS011;4395;48.554;8.820;2023-02-02T04:58:40;5.20;;;1.90;;
8716;SDS011;4395;48.554;8.820;2023-02-02T05:00:43;3.17;;;1.75;;
8716;SDS011;4395;48.554;8.820;2023-02-02T05:02:46;4.50;;;1.42;;
8716;SDS011;4395;48.554;8.820;2023-02-02T05:04:49;3.47;;;1.52;;
8716;SDS011;4395;48.554;8.820;2023-02-02T05:06:52;2.17;;;1.50;;
8716;SDS011;4395;48.554;8.820;2023-02-02T05:08:55;2.88;;;1.50;;
8716;SDS011;4395;48.554;8.820;2023-02-02T05:10:58;3.55;;;1.70;;
8716;SDS011;4395;48.554;8.820;2023-02-02T05:13:01;1.75;;;1.20;;
8716;SDS011;4395;48.554;8.820;2023-02-02T05:15:06;3.10;;;1.45;;
8716;SDS011;4395;48.554;8.820;2023-02-02T05:17:09;3.70;;;1.60;;
8716;SDS011;4395;48.554;8.820;2023-02-02T05:19:12;3.10;;;1.42;;
8716;SDS011;4395;48.554;8.820;2023-02-02T05:21:17;1.80;;;1.40;;
8716;SDS011;4395;48.554;8.820;2023-02-02T05:23:20;3.45;;;1.58;;
8716;SDS011;4395;48.554;8.820;2023-02-02T05:25:22;3.92;;;1.15;;
8716;SDS011;4395;48.554;8.820;2023-02-02T05:27:26;3.70;;;2.00;;
8716;SDS011;4395;48.554;8.820;2023-02-02T05:29:29;4.50;;;3.50;;
8716;SDS011;4395;48.554;8.820;2023-02-02T05:31:33;3.13;;;2.35;;
8716;SDS011;4395;48.554;8.820;2023-02-02T05:33:37;5.47;;;3.03;;
8716;SDS011;4395;48.554;8.820;2023-02-02T05:35:39;6.38;;;3.35;;
8716;SDS011;4395;48.554;8.820;2023-02-02T05:37:42;8.07;;;1.92;;
8716;SDS011;4395;48.554;8.820;2023-02-02T05:39:45;9.65;;;4.95;;
8716;SDS011;4395;48.554;8.820;2023-02-02T05:41:48;12.57;;;6.45;;
8716;SDS011;4395;48.554;8.820;2023-02-02T05:43:50;6.43;;;3.20;;
8716;SDS011;4395;48.554;8.820;2023-02-02T05:45:53;8.90;;;3.58;;
8716;SDS011;4395;48.554;8.820;2023-02-02T05:47:57;4.32;;;2.35;;
8716;SDS011;4395;48.554;8.820;2023-02-02T05:50:00;6.43;;;3.17;;
8716;SDS011;4395;48.554;8.820;2023-02-02T05:52:03;6.07;;;3.03;;
8716;SDS011;4395;48.554;8.820;2023-02-02T05:54:06;5.40;;;2.60;;
8716;SDS011;4395;48.554;8.820;2023-02-02T05:56:09;5.78;;;2.35;;
8716;SDS011;4395;48.554;8.820;2023-02-02T05:58:12;7.88;;;3.72;;
8716;SDS011;4395;48.554;8.820;2023-02-02T06:00:15;5.35;;;2.42;;
8716;SDS011;4395;48.554;8.820;2023-02-02T06:02:18;5.65;;;2.30;;
8716;SDS011;4395;48.554;8.820;2023-02-02T06:04:23;6.55;;;2.17;;
8716;SDS011;4395;48.554;8.820;2023-02-02T06:06:25;6.53;;;2.42;;
8716;SDS011;4395;48.554;8.820;2023-02-02T06:08:28;4.43;;;2.17;;
8716;SDS011;4395;48.554;8.820;2023-02-02T06:10:31;4.55;;;2.20;;
8716;SDS011;4395;48.554;8.820;2023-02-02T06:12:34;4.00;;;1.80;;
8716;SDS011;4395;48.554;8.820;2023-02-02T06:14:36;3.97;;;2.10;;
8716;SDS011;4395;48.554;8.820;2023-02-02T06:16:39;4.28;;;2.30;;
8716;SDS011;4395;48.554;8.820;2023-02-02T06:18:42;4.85;;;1.90;;
8716;SDS011;4395;48.554;8.820;2023-02-02T06:20:46;5.15;;;2.33;;
8716;SDS011;4395;48.554;8.820;2023-02-02T06:22:49;4.22;;;2.45;;
8716;SDS011;4395;48.554;8.820;2023-02-02T06:24:52;5.60;;;3.00;;
8716;SDS011;4395;48.554;8.820;2023-02-02T06:26:54;5.30;;;2.10;;
8716;SDS011;4395;48.554;8.820;2023-02-02T06:28:57;3.85;;;1.75;;
8716;SDS011;4395;48.554;8.820;2023-02-02T06:31:03;4.45;;;1.95;;
8716;SDS011;4395;48.554;8.820;2023-02-02T06:33:06;6.80;;;2.33;;
8716;SDS011;4395;48.554;8.820;2023-02-02T06:35:09;5.30;;;2.40;;
8716;SDS011;4395;48.554;8.820;2023-02-02T06:37:13;4.80;;;1.58;;
8716;SDS011;4395;48.554;8.820;2023-02-02T06:39:16;3.80;;;2.50;;
8716;SDS011;4395;48.554;8.820;2023-02-02T06:41:19;6.05;;;2.15;;
8716;SDS011;4395;48.554;8.820;2023-02-02T06:43:22;3.33;;;2.17;;
8716;SDS011;4395;48.554;8.820;2023-02-02T06:45:25;7.28;;;2.50;;
8716;SDS011;4395;48.554;8.820;2023-02-02T06:47:31;5.50;;;2.33;;
8716;SDS011;4395;48.554;8.820;2023-02-02T06:49:34;5.53;;;3.00;;
8716;SDS011;4395;48.554;8.820;2023-02-02T06:51:36;4.60;;;2.72;;
8716;SDS011;4395;48.554;8.820;2023-02-02T06:53:41;5.68;;;2.38;;
8716;SDS011;4395;48.554;8.820;2023-02-02T06:55:43;7.32;;;2.70;;
8716;SDS011;4395;48.554;8.820;2023-02-02T06:57:54;4.35;;;2.58;;
8716;SDS011;4395;48.554;8.820;2023-02-02T06:59:58;5.97;;;3.17;;
8716;SDS011;4395;48.554;8.820;2023-02-02T07:02:00;4.22;;;2.45;;
8716;SDS011;4395;48.554;8.820;2023-02-02T07:04:03;4.35;;;2.38;;
8716;SDS011;4395;48.554;8.820;2023-02-02T07:06:12;5.47;;;2.60;;
8716;SDS011;4395;48.554;8.820;2023-02-02T07:08:17;4.45;;;2.22;;
8716;SDS011;4395;48.554;8.820;2023-02-02T07:10:21;6.43;;;2.60;;
8716;SDS011;4395;48.554;8.820;2023-02-02T07:12:44;4.32;;;2.05;;
8716;SDS011;4395;48.554;8.820;2023-02-02T07:14:47;3.72;;;2.08;;
8716;SDS011;4395;48.554;8.820;2023-02-02T07:16:49;4.95;;;2.53;;
8716;SDS011;4395;48.554;8.820;2023-02-02T07:18:52;4.15;;;2.50;;
8716;SDS011;4395;48.554;8.820;2023-02-02T07:20:57;4.88;;;2.20;;
8716;SDS011;4395;48.554;8.820;2023-02-02T07:23:01;5.50;;;2.45;;
8716;SDS011;4395;48.554;8.820;2023-02-02T07:25:05;3.38;;;2.22;;
8716;SDS011;4395;48.554;8.820;2023-02-02T07:27:09;8.38;;;2.20;;
8716;SDS011;4395;48.554;8.820;2023-02-02T07:29:12;4.53;;;2.38;;
8716;SDS011;4395;48.554;8.820;2023-02-02T07:31:17;4.55;;;2.25;;
8716;SDS011;4395;48.554;8.820;2023-02-02T07:33:21;4.43;;;2.33;;
8716;SDS011;4395;48.554;8.820;2023-02-02T07:35:24;5.47;;;2.38;;
8716;SDS011;4395;48.554;8.820;2023-02-02T07:37:27;3.95;;;2.47;;
8716;SDS011;4395;48.554;8.820;2023-02-02T07:39:29;2.38;;;1.85;;
8716;SDS011;4395;48.554;8.820;2023-02-02T07:41:33;5.38;;;2.20;;
8716;SDS011;4395;48.554;8.820;2023-02-02T07:43:38;11.52;;;3.65;;
8716;SDS011;4395;48.554;8.820;2023-02-02T07:45:41;7.95;;;2.35;;
8716;SDS011;4395;48.554;8.820;2023-02-02T07:47:43;6.22;;;2.50;;
8716;SDS011;4395;48.554;8.820;2023-02-02T07:49:47;3.53;;;2.38;;
8716;SDS011;4395;48.554;8.820;2023-02-02T07:51:50;3.95;;;1.98;;
8716;SDS011;4395;48.554;8.820;2023-02-02T07:53:53;5.75;;;2.35;;
8716;SDS011;4395;48.554;8.820;2023-02-02T07:56:08;6.55;;;3.22;;
8716;SDS011;4395;48.554;8.820;2023-02-02T07:58:12;7.25;;;2.40;;
8716;SDS011;4395;48.554;8.820;2023-02-02T08:00:16;6.30;;;2.58;;
8716;SDS011;4395;48.554;8.820;2023-02-02T08:02:20;3.60;;;2.47;;
8716;SDS011;4395;48.554;8.820;2023-02-02T08:04:22;2.83;;;2.45;;
8716;SDS011;4395;48.554;8.820;2023-02-02T08:06:26;5.43;;;2.00;;
8716;SDS011;4395;48.554;8.820;2023-02-02T08:08:31;5.53;;;2.33;;
8716;SDS011;4395;48.554;8.820;2023-02-02T08:10:34;5.60;;;2.60;;
8716;SDS011;4395;48.554;8.820;2023-02-02T08:12:36;4.75;;;2.55;;
8716;SDS011;4395;48.554;8.820;2023-02-02T08:14:39;7.75;;;2.97;;
8716;SDS011;4395;48.554;8.820;2023-02-02T08:16:43;6.60;;;3.42;;
8716;SDS011;4395;48.554;8.820;2023-02-02T08:18:46;8.02;;;3.47;;
8716;SDS011;4395;48.554;8.820;2023-02-02T08:20:49;11.18;;;3.95;;
8716;SDS011;4395;48.554;8.820;2023-02-02T08:22:52;7.32;;;3.15;;
8716;SDS011;4395;48.554;8.820;2023-02-02T08:24:55;6.97;;;3.72;;
8716;SDS011;4395;48.554;8.820;2023-02-02T08:26:58;11.00;;;6.40;;
8716;SDS011;4395;48.554;8.820;2023-02-02T08:29:01;11.55;;;4.72;;
8716;SDS011;4395;48.554;8.820;2023-02-02T08:31:10;4.68;;;3.20;;
8716;SDS011;4395;48.554;8.820;2023-02-02T08:33:15;5.55;;;2.72;;
8716;SDS011;4395;48.554;8.820;2023-02-02T08:35:18;5.22;;;2.40;;
8716;SDS011;4395;48.554;8.820;2023-02-02T08:37:21;5.75;;;2.17;;
8716;SDS011;4395;48.554;8.820;2023-02-02T08:39:24;6.35;;;2.33;;
8716;SDS011;4395;48.554;8.820;2023-02-02T08:41:27;6.82;;;2.40;;
8716;SDS011;4395;48.554;8.820;2023-02-02T08:43:30;4.85;;;1.95;;
8716;SDS011;4395;48.554;8.820;2023-02-02T08:45:33;3.53;;;2.20;;
8716;SDS011;4395;48.554;8.820;2023-02-02T08:47:55;7.63;;;2.88;;
8716;SDS011;4395;48.554;8.820;2023-02-02T08:50:13;6.30;;;2.88;;
8716;SDS011;4395;48.554;8.820;2023-02-02T08:52:16;6.75;;;3.40;;
8716;SDS011;4395;48.554;8.820;2023-02-02T08:54:18;5.22;;;2.92;;
8716;SDS011;4395;48.554;8.820;2023-02-02T08:56:21;4.80;;;2.72;;
8716;SDS011;4395;48.554;8.820;2023-02-02T08:58:25;6.43;;;2.97;;
8716;SDS011;4395;48.554;8.820;2023-02-02T09:00:28;7.25;;;3.20;;
8716;SDS011;4395;48.554;8.820;2023-02-02T09:02:31;3.45;;;2.28;;
8716;SDS011;4395;48.554;8.820;2023-02-02T09:04:33;5.88;;;2.40;;
8716;SDS011;4395;48.554;8.820;2023-02-02T09:06:38;4.03;;;2.15;;
8716;SDS011;4395;48.554;8.820;2023-02-02T09:08:42;4.15;;;2.30;;
8716;SDS011;4395;48.554;8.820;2023-02-02T09:10:45;8.13;;;2.72;;
8716;SDS011;4395;48.554;8.820;2023-02-02T09:12:48;3.97;;;2.05;;
8716;SDS011;4395;48.554;8.820;2023-02-02T09:14:50;4.85;;;2.85;;
8716;SDS011;4395;48.554;8.820;2023-02-02T09:16:53;7.68;;;3.10;;
8716;SDS011;4395;48.554;8.820;2023-02-02T09:18:56;5.90;;;2.90;;
8716;SDS011;4395;48.554;8.820;2023-02-02T09:20:59;6.32;;;2.95;;
8716;SDS011;4395;48.554;8.820;2023-02-02T09:23:04;12.73;;;5.72;;
8716;SDS011;4395;48.554;8.820;2023-02-02T09:25:07;7.70;;;3.85;;
8716;SDS011;4395;48.554;8.820;2023-02-02T09:27:09;17.08;;;12.25;;
8716;SDS011;4395;48.554;8.820;2023-02-02T09:29:13;14.18;;;10.32;;
8716;SDS011;4395;48.554;8.820;2023-02-02T09:31:18;13.25;;;7.35;;
8716;SDS011;4395;48.554;8.820;2023-02-02T09:33:21;6.85;;;4.40;;
8716;SDS011;4395;48.554;8.820;2023-02-02T09:35:24;12.45;;;5.50;;
8716;SDS011;4395;48.554;8.820;2023-02-02T09:37:27;8.77;;;4.22;;
8716;SDS011;4395;48.554;8.820;2023-02-02T09:39:31;9.70;;;4.72;;
8716;SDS011;4395;48.554;8.820;2023-02-02T09:41:47;8.05;;;4.03;;
8716;SDS011;4395;48.554;8.820;2023-02-02T09:44:15;6.70;;;3.60;;
8716;SDS011;4395;48.554;8.820;2023-02-02T09:46:28;10.05;;;4.60;;
8716;SDS011;4395;48.554;8.820;2023-02-02T09:48:42;7.43;;;4.03;;
8716;SDS011;4395;48.554;8.820;2023-02-02T09:50:51;5.25;;;3.67;;
8716;SDS011;4395;48.554;8.820;2023-02-02T09:52:57;8.13;;;4.22;;
8716;SDS011;4395;48.554;8.820;2023-02-02T09:55:12;5.13;;;3.25;;
8716;SDS011;4395;48.554;8.820;2023-02-02T09:57:20;8.15;;;3.60;;
8716;SDS011;4395;48.554;8.820;2023-02-02T09:59:27;4.57;;;2.65;;
8716;SDS011;4395;48.554;8.820;2023-02-02T10:01:33;4.57;;;2.88;;
8716;SDS011;4395;48.554;8.820;2023-02-02T10:03:38;2.63;;;1.77;;
8716;SDS011;4395;48.554;8.820;2023-02-02T10:05:48;5.60;;;3.00;;
8716;SDS011;4395;48.554;8.820;2023-02-02T10:07:55;7.28;;;4.28;;
8716;SDS011;4395;48.554;8.820;2023-02-02T10:10:03;4.82;;;3.30;;
8716;SDS011;4395;48.554;8.820;2023-02-02T10:12:18;4.50;;;2.50;;
8716;SDS011;4395;48.554;8.820;2023-02-02T10:14:32;4.35;;;2.90;;
8716;SDS011;4395;48.554;8.820;2023-02-02T10:16:40;4.70;;;2.40;;
8716;SDS011;4395;48.554;8.820;2023-02-02T10:18:45;2.97;;;1.55;;
8716;SDS011;4395;48.554;8.820;2023-02-02T10:20:53;4.05;;;2.13;;
8716;SDS011;4395;48.554;8.820;2023-02-02T10:23:03;5.30;;;2.60;;
8716;SDS011;4395;48.554;8.820;2023-02-02T10:25:14;3.83;;;2.25;;
8716;SDS011;4395;48.554;8.820;2023-02-02T10:27:21;3.30;;;2.08;;
8716;SDS011;4395;48.554;8.820;2023-02-02T10:29:37;2.70;;;1.80;;
8716;SDS011;4395;48.554;8.820;2023-02-02T10:31:53;3.80;;;2.15;;
8716;SDS011;4395;48.554;8.820;2023-02-02T10:34:06;1.58;;;1.30;;
8716;SDS011;4395;48.554;8.820;2023-02-02T10:36:15;4.13;;;1.83;;
8716;SDS011;4395;48.554;8.820;2023-02-02T10:38:30;2.45;;;1.88;;
8716;SDS011;4395;48.554;8.820;2023-02-02T10:40:42;2.53;;;1.70;;
8716;SDS011;4395;48.554;8.820;2023-02-02T10:42:59;1.92;;;1.50;;
8716;SDS011;4395;48.554;8.820;2023-02-02T10:45:34;3.88;;;2.67;;
8716;SDS011;4395;48.554;8.820;2023-02-02T10:47:39;3.97;;;2.90;;
8716;SDS011;4395;48.554;8.820;2023-02-02T10:49:42;5.68;;;2.80;;
8716;SDS011;4395;48.554;8.820;2023-02-02T10:51:48;3.42;;;2.55;;
8716;SDS011;4395;48.554;8.820;2023-02-02T10:53:56;3.97;;;2.38;;
8716;SDS011;4395;48.554;8.820;2023-02-02T10:56:02;4.70;;;2.40;;
8716;SDS011;4395;48.554;8.820;2023-02-02T10:58:12;3.75;;;2.50;;
8716;SDS011;4395;48.554;8.820;2023-02-02T11:00:22;2.47;;;1.90;;
8716;SDS011;4395;48.554;8.820;2023-02-02T11:02:30;3.25;;;1.85;;
8716;SDS011;4395;48.554;8.820;2023-02-02T11:04:33;3.47;;;2.75;;
8716;SDS011;4395;48.554;8.820;2023-02-02T11:06:54;2.22;;;1.90;;
8716;SDS011;4395;48.554;8.820;2023-02-02T11:09:00;2.60;;;1.83;;
8716;SDS011;4395;48.554;8.820;2023-02-02T11:11:09;2.50;;;1.90;;
8716;SDS011;4395;48.554;8.820;2023-02-02T11:13:18;3.53;;;2.38;;
8716;SDS011;4395;48.554;8.820;2023-02-02T11:15:29;3.65;;;2.60;;
8716;SDS011;4395;48.554;8.820;2023-02-02T11:17:32;2.00;;;1.38;;
8716;SDS011;4395;48.554;8.820;2023-02-02T11:19:36;5.85;;;3.58;;
8716;SDS011;4395;48.554;8.820;2023-02-02T11:21:39;5.20;;;3.30;;
8716;SDS011;4395;48.554;8.820;2023-02-02T11:23:49;4.13;;;2.90;;
8716;SDS011;4395;48.554;8.820;2023-02-02T11:25:57;3.30;;;1.83;;
8716;SDS011;4395;48.554;8.820;2023-02-02T11:28:08;3.38;;;1.88;;
8716;SDS011;4395;48.554;8.820;2023-02-02T11:30:23;2.95;;;1.60;;
8716;SDS011;4395;48.554;8.820;2023-02-02T11:32:31;7.30;;;4.40;;
8716;SDS011;4395;48.554;8.820;2023-02-02T11:34:35;5.15;;;1.92;;
8716;SDS011;4395;48.554;8.820;2023-02-02T11:36:37;8.27;;;5.18;;
8716;SDS011;4395;48.554;8.820;2023-02-02T11:38:40;3.78;;;2.63;;
8716;SDS011;4395;48.554;8.820;2023-02-02T11:40:43;4.50;;;2.30;;
8716;SDS011;4395;48.554;8.820;2023-02-02T11:42:47;9.65;;;5.80;;
8716;SDS011;4395;48.554;8.820;2023-02-02T11:44:50;3.90;;;2.45;;
8716;SDS011;4395;48.554;8.820;2023-02-02T11:46:57;4.28;;;2.40;;
8716;SDS011;4395;48.554;8.820;2023-02-02T11:49:02;3.97;;;2.30;;
8716;SDS011;4395;48.554;8.820;2023-02-02T11:51:09;4.50;;;2.03;;
8716;SDS011;4395;48.554;8.820;2023-02-02T11:53:25;6.38;;;3.00;;
8716;SDS011;4395;48.554;8.820;2023-02-02T11:55:31;4.95;;;1.90;;
8716;SDS011;4395;48.554;8.820;2023-02-02T11:57:34;3.13;;;2.28;;
8716;SDS011;4395;48.554;8.820;2023-02-02T11:59:37;4.28;;;2.28;;
8716;SDS011;4395;48.554;8.820;2023-02-02T12:01:41;4.80;;;1.85;;
8716;SDS011;4395;48.554;8.820;2023-02-02T12:03:45;7.22;;;2.45;;
8716;SDS011;4395;48.554;8.820;2023-02-02T12:05:50;9.80;;;3.05;;
8716;SDS011;4395;48.554;8.820;2023-02-02T12:07:53;3.10;;;2.00;;
8716;SDS011;4395;48.554;8.820;2023-02-02T12:09:57;5.43;;;2.28;;
8716;SDS011;4395;48.554;8.820;2023-02-02T12:12:03;4.95;;;2.72;;
8716;SDS011;4395;48.554;8.820;2023-02-02T12:14:16;8.60;;;3.58;;
8716;SDS011;4395;48.554;8.820;2023-02-02T12:16:35;7.57;;;4.38;;
8716;SDS011;4395;48.554;8.820;2023-02-02T12:18:58;5.78;;;2.30;;
8716;SDS011;4395;48.554;8.820;2023-02-02T12:21:09;3.67;;;2.10;;
8716;SDS011;4395;48.554;8.820;2023-02-02T12:23:22;6.13;;;2.45;;
8716;SDS011;4395;48.554;8.820;2023-02-02T12:25:40;4.07;;;2.60;;
8716;SDS011;4395;48.554;8.820;2023-02-02T12:27:56;7.15;;;2.47;;
8716;SDS011;4395;48.554;8.820;2023-02-02T12:30:09;2.47;;;1.60;;
8716;SDS011;4395;48.554;8.820;2023-02-02T12:32:25;4.45;;;2.25;;
8716;SDS011;4395;48.554;8.820;2023-02-02T12:34:39;6.75;;;2.20;;
8716;SDS011;4395;48.554;8.820;2023-02-02T12:36:54;4.57;;;2.42;;
8716;SDS011;4395;48.554;8.820;2023-02-02T12:39:08;3.83;;;2.10;;
8716;SDS011;4395;48.554;8.820;2023-02-02T12:41:23;5.05;;;2.20;;
8716;SDS011;4395;48.554;8.820;2023-02-02T12:43:38;3.95;;;1.70;;
8716;SDS011;4395;48.554;8.820;2023-02-02T12:45:46;4.30;;;2.58;;
8716;SDS011;4395;48.554;8.820;2023-02-02T12:48:07;6.65;;;1.90;;
8716;SDS011;4395;48.554;8.820;2023-02-02T12:50:21;4.88;;;2.13;;
8716;SDS011;4395;48.554;8.820;2023-02-02T12:52:35;4.32;;;1.73;;
8716;SDS011;4395;48.554;8.820;2023-02-02T12:54:50;1.85;;;1.60;;
8716;SDS011;4395;48.554;8.820;2023-02-02T12:57:07;4.25;;;1.60;;
8716;SDS011;4395;48.554;8.820;2023-02-02T12:59:20;5.05;;;2.00;;
8716;SDS011;4395;48.554;8.820;2023-02-02T13:01:40;3.38;;;1.98;;
8716;SDS011;4395;48.554;8.820;2023-02-02T13:03:58;4.72;;;2.20;;
8716;SDS011;4395;48.554;8.820;2023-02-02T13:06:25;3.38;;;2.15;;